createdAt,value
2023-11-13T00:03:15.094Z,19.5
2023-11-13T00:08:17.233Z,19.5
2023-11-13T00:13:19.390Z,19.5
2023-11-13T00:18:21.583Z,19.4
2023-11-13T00:23:23.921Z,19.4
2023-11-13T00:28:26.092Z,19.4
2023-11-13T00:33:28.287Z,19.3
2023-11-13T00:38:30.523Z,19.3
2023-11-13T00:43:32.626Z,19.3
2023-11-13T00:48:34.821Z,19.3
2023-11-13T00:53:37.005Z,19.3
2023-11-13T00:58:39.125Z,19.2
2023-11-13T01:03:41.471Z,19.2
2023-11-13T01:08:43.742Z,19.1
2023-11-13T01:13:45.846Z,19.1
2023-11-13T01:18:48.145Z,19.1
2023-11-13T01:23:50.521Z,19.1
2023-11-13T01:28:52.654Z,19.1
2023-11-13T01:33:54.928Z,19
2023-11-13T01:38:57.071Z,19
2023-11-13T01:43:59.170Z,19
2023-11-13T01:49:01.437Z,19
2023-11-13T01:54:03.587Z,19
2023-11-13T01:59:05.751Z,19
2023-11-13T02:04:08.045Z,18.9
2023-11-13T02:09:10.209Z,18.9
2023-11-13T02:14:12.541Z,18.9
2023-11-13T02:19:14.691Z,18.8
2023-11-13T02:24:16.827Z,18.8
2023-11-13T02:29:18.945Z,18.8
2023-11-13T02:34:21.305Z,18.8
2023-11-13T02:39:23.465Z,18.8
2023-11-13T02:44:25.724Z,18.8
2023-11-13T02:49:28.026Z,18.8
2023-11-13T02:54:30.147Z,18.7
2023-11-13T02:59:32.423Z,18.7
2023-11-13T03:04:34.603Z,18.7
2023-11-13T03:09:36.745Z,18.7
2023-11-13T03:14:38.947Z,18.7
2023-11-13T03:19:41.233Z,18.6
2023-11-13T03:24:43.420Z,18.6
2023-11-13T03:29:45.598Z,18.6
2023-11-13T03:34:47.741Z,18.6
2023-11-13T03:39:49.936Z,18.6
2023-11-13T03:44:52.107Z,18.5
2023-11-13T03:49:54.211Z,18.5
2023-11-13T03:54:56.409Z,18.5
2023-11-13T03:59:58.545Z,18.5
2023-11-13T04:05:00.689Z,18.5
2023-11-13T04:10:02.846Z,18.5
2023-11-13T04:15:04.939Z,18.4
2023-11-13T04:20:07.077Z,18.4
2023-11-13T04:25:09.248Z,18.4
2023-11-13T04:30:11.507Z,18.4
2023-11-13T04:35:13.652Z,18.4
2023-11-13T04:40:15.807Z,18.4
2023-11-13T04:45:17.905Z,18.4
2023-11-13T04:50:20.057Z,18.4
2023-11-13T04:55:22.427Z,18.4
2023-11-13T05:00:24.543Z,18.4
2023-11-13T05:05:26.684Z,18.4
2023-11-13T05:10:28.865Z,18.4
2023-11-13T05:15:30.985Z,18.3
2023-11-13T05:20:33.234Z,18.3
2023-11-13T05:25:35.439Z,18.3
2023-11-13T05:30:37.625Z,18.3
2023-11-13T05:35:39.790Z,18.3
2023-11-13T05:40:42.034Z,18.4
2023-11-13T05:45:44.172Z,18.6
2023-11-13T05:50:46.300Z,18.8
2023-11-13T05:55:48.570Z,19.1
2023-11-13T06:00:50.695Z,19.5
2023-11-13T06:05:52.829Z,19.9
2023-11-13T06:10:55.131Z,20.4
2023-11-13T06:15:57.266Z,20.8
2023-11-13T06:20:59.382Z,21.3
2023-11-13T06:26:01.651Z,21.7
2023-11-13T06:31:03.801Z,22
2023-11-13T06:36:05.872Z,22.2
2023-11-13T06:41:08.280Z,22.4
2023-11-13T06:46:10.413Z,22.4
2023-11-13T06:51:12.645Z,22.4
2023-11-13T06:56:14.856Z,22.4
2023-11-13T07:01:17.112Z,22.3
2023-11-13T07:06:19.345Z,22.3
2023-11-13T07:11:21.557Z,22.2
2023-11-13T07:16:23.801Z,22.1
2023-11-13T07:21:26.013Z,22.1
2023-11-13T07:26:28.181Z,22
2023-11-13T07:31:30.577Z,21.9
2023-11-13T07:36:32.678Z,21.8
2023-11-13T07:41:34.886Z,21.7
2023-11-13T07:46:37.010Z,21.6
2023-11-13T07:51:39.069Z,21.4
2023-11-13T07:56:41.301Z,21.3
2023-11-13T08:01:43.483Z,21.2
2023-11-13T08:06:45.571Z,21.1
2023-11-13T08:11:47.730Z,21.1
2023-11-13T08:16:49.895Z,21
2023-11-13T08:21:51.992Z,20.9
2023-11-13T08:26:54.157Z,20.8
2023-11-13T08:31:56.509Z,20.7
2023-11-13T08:36:59.914Z,20.7
2023-11-13T08:42:00.724Z,20.6
2023-11-13T08:47:02.898Z,20.5
2023-11-13T08:52:04.970Z,20.4
2023-11-13T08:57:07.263Z,20.4
2023-11-13T09:02:09.462Z,20.3
2023-11-13T09:07:11.533Z,20.3
2023-11-13T09:12:15.406Z,20.2
2023-11-13T09:17:15.970Z,20.2
2023-11-13T09:22:18.107Z,20.1
2023-11-13T09:27:20.272Z,20.1
2023-11-13T09:32:22.397Z,20
2023-11-13T09:37:24.573Z,19.9
2023-11-13T09:42:26.890Z,19.9
2023-11-13T09:47:29.059Z,19.8
2023-11-13T09:52:31.300Z,19.8
2023-11-13T09:57:33.467Z,19.8
2023-11-13T10:02:35.780Z,19.7
2023-11-13T10:07:37.914Z,19.7
2023-11-13T10:12:40.079Z,19.7
2023-11-13T10:17:42.335Z,19.7
2023-11-13T10:22:44.478Z,19.7
2023-11-13T10:27:46.611Z,19.7
2023-11-13T10:32:48.906Z,19.8
2023-11-13T10:37:51.107Z,20
2023-11-13T10:42:53.295Z,20.3
2023-11-13T10:47:56.540Z,20.6
2023-11-13T10:52:58.659Z,21
2023-11-13T10:58:00.902Z,21.4
2023-11-13T11:03:03.088Z,21.8
2023-11-13T11:08:05.187Z,22.2
2023-11-13T11:13:07.483Z,22.5
2023-11-13T11:18:09.654Z,22.7
2023-11-13T11:23:11.689Z,22.8
2023-11-13T11:28:14.480Z,22.9
2023-11-13T11:33:15.979Z,22.9
2023-11-13T11:38:18.147Z,22.9
2023-11-13T11:43:20.435Z,22.9
2023-11-13T11:48:22.704Z,22.9
2023-11-13T11:53:24.990Z,22.8
2023-11-13T11:58:27.134Z,22.7
2023-11-13T12:03:29.461Z,22.7
2023-11-13T12:08:31.498Z,22.6
2023-11-13T12:13:34.136Z,22.5
2023-11-13T12:18:35.945Z,22.4
2023-11-13T12:23:38.099Z,22.3
2023-11-13T12:28:40.445Z,22.2
2023-11-13T12:33:42.619Z,22.1
2023-11-13T12:38:44.849Z,22
2023-11-13T12:43:47.108Z,21.9
2023-11-13T12:48:49.188Z,21.8
2023-11-13T12:53:51.468Z,21.7
2023-11-13T12:58:53.664Z,21.6
2023-11-13T13:03:55.809Z,21.5
2023-11-13T13:08:58.317Z,21.5
2023-11-13T13:14:00.553Z,21.4
2023-11-13T13:19:02.804Z,21.3
2023-11-13T13:24:04.940Z,21.3
2023-11-13T13:29:07.103Z,21.2
2023-11-13T13:34:09.346Z,21.1
2023-11-13T13:39:11.363Z,21
2023-11-13T13:44:13.523Z,21
2023-11-13T13:49:15.869Z,20.9
2023-11-13T13:54:17.987Z,20.9
2023-11-13T13:59:20.359Z,20.8
2023-11-13T14:04:22.657Z,20.8
2023-11-13T14:09:24.931Z,20.8
2023-11-13T14:14:27.268Z,20.8
2023-11-13T14:19:29.415Z,20.9
2023-11-13T14:24:31.653Z,21.1
2023-11-13T14:29:33.911Z,21.3
2023-11-13T14:34:36.070Z,21.6
2023-11-13T14:39:38.644Z,21.9
2023-11-13T14:44:40.553Z,22.2
2023-11-13T14:49:42.678Z,22.5
2023-11-13T14:54:44.851Z,22.6
2023-11-13T14:59:47.039Z,22.7
2023-11-13T15:04:49.192Z,22.7
2023-11-13T15:09:51.326Z,22.7
2023-11-13T15:14:53.519Z,22.7
2023-11-13T15:19:55.674Z,22.7
2023-11-13T15:24:57.786Z,22.7
2023-11-13T15:30:00.074Z,22.6
2023-11-13T15:35:02.242Z,22.6
2023-11-13T15:40:05.444Z,22.5
2023-11-13T15:45:07.728Z,22.4
2023-11-13T15:50:09.912Z,22.4
2023-11-13T15:55:12.161Z,22.3
2023-11-13T16:00:14.380Z,22.2
2023-11-13T16:05:16.733Z,22.1
2023-11-13T16:10:18.681Z,22.1
2023-11-13T16:15:20.917Z,22
2023-11-13T16:20:23.186Z,21.9
2023-11-13T16:25:25.378Z,21.8
2023-11-13T16:30:27.748Z,21.8
2023-11-13T16:35:29.872Z,21.8
2023-11-13T16:40:32.156Z,21.8
2023-11-13T16:45:34.306Z,21.8
2023-11-13T16:50:36.411Z,21.9
2023-11-13T16:55:38.634Z,22.1
2023-11-13T17:00:40.789Z,22.3
2023-11-13T17:05:43.022Z,22.4
2023-11-13T17:10:45.339Z,22.5
2023-11-13T17:15:47.496Z,22.6
2023-11-13T17:20:49.607Z,22.7
2023-11-13T17:25:51.780Z,22.7
2023-11-13T17:30:53.991Z,22.6
2023-11-13T17:35:56.145Z,22.6
2023-11-13T17:40:58.335Z,22.5
2023-11-13T17:46:00.706Z,22.5
2023-11-13T17:51:02.850Z,22.4
2023-11-13T17:56:04.992Z,22.4
2023-11-13T18:01:07.325Z,22.3
2023-11-13T18:06:09.453Z,22.3
2023-11-13T18:11:11.626Z,22.2
2023-11-13T18:16:13.841Z,22.2
2023-11-13T18:21:15.853Z,22.1
2023-11-13T18:26:18.006Z,22.1
2023-11-13T18:31:20.302Z,22
2023-11-13T18:36:22.387Z,21.9
2023-11-13T18:41:24.641Z,21.8
2023-11-13T18:46:26.878Z,21.8
2023-11-13T18:51:29.070Z,21.7
2023-11-13T18:56:31.243Z,21.7
2023-11-13T19:01:33.660Z,21.7
2023-11-13T19:06:35.799Z,21.7
2023-11-13T19:11:38.044Z,21.6
2023-11-13T19:16:40.307Z,21.6
2023-11-13T19:21:42.426Z,21.5
2023-11-13T19:26:44.589Z,21.4
2023-11-13T19:31:46.895Z,21.3
2023-11-13T19:36:49.141Z,21.3
2023-11-13T19:41:51.304Z,21.3
2023-11-13T19:46:53.729Z,21.2
2023-11-13T19:51:56.255Z,21.2
2023-11-13T19:56:58.367Z,21.2
2023-11-13T20:02:00.899Z,21.2
2023-11-13T20:07:03.098Z,21.2
2023-11-13T20:12:05.759Z,21.1
2023-11-13T20:17:07.707Z,21.1
2023-11-13T20:22:09.809Z,21
2023-11-13T20:27:11.969Z,21
2023-11-13T20:32:14.369Z,21
2023-11-13T20:37:16.422Z,20.9
2023-11-13T20:42:18.567Z,20.9
2023-11-13T20:47:20.887Z,20.8
2023-11-13T20:52:22.858Z,20.8
2023-11-13T20:57:25.074Z,20.7
2023-11-13T21:02:27.307Z,20.7
2023-11-13T21:07:29.392Z,20.7
2023-11-13T21:12:31.566Z,20.7
2023-11-13T21:17:33.825Z,20.8
2023-11-13T21:22:35.866Z,20.9
2023-11-13T21:27:37.998Z,21.1
2023-11-13T21:32:40.321Z,21.3
2023-11-13T21:37:42.603Z,21.5
2023-11-13T21:42:44.782Z,21.7
2023-11-13T21:47:47.052Z,21.7
2023-11-13T21:52:49.045Z,21.8
2023-11-13T21:57:51.185Z,21.8
2023-11-13T22:02:54.055Z,21.8
2023-11-13T22:07:55.916Z,21.8
2023-11-13T22:12:58.066Z,21.9
2023-11-13T22:18:00.359Z,21.9
2023-11-13T22:23:05.073Z,21.9
2023-11-13T22:28:04.721Z,21.9
2023-11-13T22:33:07.044Z,21.9
2023-11-13T22:38:09.116Z,21.9
2023-11-13T22:43:13.514Z,21.9
2023-11-13T22:48:13.549Z,21.8
2023-11-13T22:53:15.608Z,21.8
2023-11-13T22:58:17.812Z,21.7
2023-11-13T23:03:20.133Z,21.6
2023-11-13T23:08:22.214Z,21.6
2023-11-13T23:13:24.346Z,21.5
2023-11-13T23:18:26.693Z,21.5
2023-11-13T23:23:28.925Z,21.4
2023-11-13T23:28:31.079Z,21.4
2023-11-13T23:33:33.374Z,21.3
2023-11-13T23:38:35.491Z,21.2
2023-11-13T23:43:37.638Z,21.2
2023-11-13T23:48:39.789Z,21.1
2023-11-13T23:53:41.895Z,21.1
2023-11-13T23:58:44.100Z,21.1
